Accueil
METAR-TAF:

METAR-TAF

Aéroports :

Ogden-Hinckley Airport

Ogden, Utah, États-Unis

latitude: 41-11-37N, longitude: 112-00-59W, altitude: 1362 m

Observation

Le bulletin a été fait il y a 40 minutes, à 21:53 UTC
Vent 6 kt de nord-ouest
Température 27°C
Humidité 24%
Pression 1023 hPa
Visibilité: 16.1 km
Ciel clair

METAR: KOGD 262153Z 31006KT 10SM CLR 27/05 A3021 RMK AO2 SLP179 T02720050

Heure: 16:33 (22:33 UTC)

Prévision

Le bulletin a été fait il y a 5 heures et 0 minutes, à 17:33 UTC
Prévision valable du 26 à 18 UTC au 27 à 18 UTC
Vent 5 kt de direction variable
Visibilité: 10 km
Ciel clair
A partir de 26 à 2000 UTC
Vent 7 kt de ouest
Visibilité: 10 km
Ciel clair
A partir de 27 à 0200 UTC
Vent 5 kt de sud/sud-est
Visibilité: 10 km
Ciel clair

TAF: KOGD 261733Z 2618/2718 VRB05KT P6SM SKC FM262000 26007KT P6SM SKC FM270200 16005KT P6SM SKC

Observations et prévisions météorologiques de plus de 4000 aéroports (messages METAR et TAF).

Les stations disponibles sont représentées par des disques jaunes et rouges sur la carte.

Passer la souris dessus pour voir le nom de la station.

Cliquer dessus pour voir les observations et prévisions météorologiques.

Pour changer de carte: cliquez sur les boutons verts avec une croix noire pour zoomer, sur le bouton vert avec un tiret pour effectuer un zoom arrière, ou sur les flèches vertes pour les cartes adjacentes.


METAR-TAF: